sensor_id;sensor_type;location;lat;lon;timestamp;P1;durP1;ratioP1;P2;durP2;ratioP2
52740;SDS011;38634;52.138;9.912;2023-07-29T00:02:36;13.65;;;2.78;;
52740;SDS011;38634;52.138;9.912;2023-07-29T00:05:21;11.73;;;2.42;;
52740;SDS011;38634;52.138;9.912;2023-07-29T00:08:06;14.05;;;2.85;;
52740;SDS011;38634;52.138;9.912;2023-07-29T00:10:51;13.30;;;2.60;;
52740;SDS011;38634;52.138;9.912;2023-07-29T00:13:35;12.27;;;2.58;;
52740;SDS011;38634;52.138;9.912;2023-07-29T00:16:20;14.93;;;3.05;;
52740;SDS011;38634;52.138;9.912;2023-07-29T00:19:08;12.38;;;2.47;;
52740;SDS011;38634;52.138;9.912;2023-07-29T00:21:52;16.30;;;2.85;;
52740;SDS011;38634;52.138;9.912;2023-07-29T00:24:39;12.65;;;2.35;;
52740;SDS011;38634;52.138;9.912;2023-07-29T00:27:25;19.60;;;5.45;;
52740;SDS011;38634;52.138;9.912;2023-07-29T00:30:09;15.05;;;2.78;;
52740;SDS011;38634;52.138;9.912;2023-07-29T00:32:54;22.95;;;4.50;;
52740;SDS011;38634;52.138;9.912;2023-07-29T00:35:39;8.98;;;2.03;;
52740;SDS011;38634;52.138;9.912;2023-07-29T00:38:24;13.40;;;2.67;;
52740;SDS011;38634;52.138;9.912;2023-07-29T00:41:08;11.00;;;2.28;;
52740;SDS011;38634;52.138;9.912;2023-07-29T00:43:56;14.05;;;2.83;;
52740;SDS011;38634;52.138;9.912;2023-07-29T00:46:41;11.32;;;2.33;;
52740;SDS011;38634;52.138;9.912;2023-07-29T00:49:25;12.77;;;2.47;;
52740;SDS011;38634;52.138;9.912;2023-07-29T00:52:10;12.38;;;2.45;;
52740;SDS011;38634;52.138;9.912;2023-07-29T00:54:56;12.23;;;2.38;;
52740;SDS011;38634;52.138;9.912;2023-07-29T00:57:44;10.88;;;2.58;;
52740;SDS011;38634;52.138;9.912;2023-07-29T01:00:32;14.07;;;2.72;;
52740;SDS011;38634;52.138;9.912;2023-07-29T01:03:16;12.55;;;2.55;;
52740;SDS011;38634;52.138;9.912;2023-07-29T01:06:06;15.82;;;3.05;;
52740;SDS011;38634;52.138;9.912;2023-07-29T01:09:07;12.45;;;2.60;;
52740;SDS011;38634;52.138;9.912;2023-07-29T01:12:08;12.13;;;2.50;;
52740;SDS011;38634;52.138;9.912;2023-07-29T01:15:11;14.27;;;3.30;;
52740;SDS011;38634;52.138;9.912;2023-07-29T01:18:26;14.10;;;2.80;;
52740;SDS011;38634;52.138;9.912;2023-07-29T01:21:14;9.27;;;2.13;;
52740;SDS011;38634;52.138;9.912;2023-07-29T01:24:04;11.50;;;2.45;;
52740;SDS011;38634;52.138;9.912;2023-07-29T01:26:49;15.52;;;2.78;;
52740;SDS011;38634;52.138;9.912;2023-07-29T01:29:33;16.63;;;2.78;;
52740;SDS011;38634;52.138;9.912;2023-07-29T01:35:31;15.07;;;2.70;;
52740;SDS011;38634;52.138;9.912;2023-07-29T01:38:26;10.85;;;2.17;;
52740;SDS011;38634;52.138;9.912;2023-07-29T01:41:22;18.20;;;3.33;;
52740;SDS011;38634;52.138;9.912;2023-07-29T01:44:07;15.60;;;2.63;;
52740;SDS011;38634;52.138;9.912;2023-07-29T01:46:51;14.63;;;2.75;;
52740;SDS011;38634;52.138;9.912;2023-07-29T01:49:36;14.85;;;2.75;;
52740;SDS011;38634;52.138;9.912;2023-07-29T01:52:20;15.10;;;2.70;;
52740;SDS011;38634;52.138;9.912;2023-07-29T01:55:06;12.63;;;2.83;;
52740;SDS011;38634;52.138;9.912;2023-07-29T01:57:51;13.98;;;2.83;;
52740;SDS011;38634;52.138;9.912;2023-07-29T02:00:36;14.43;;;2.55;;
52740;SDS011;38634;52.138;9.912;2023-07-29T02:03:23;10.77;;;2.53;;
52740;SDS011;38634;52.138;9.912;2023-07-29T02:06:09;13.40;;;2.90;;
52740;SDS011;38634;52.138;9.912;2023-07-29T02:08:55;16.95;;;3.05;;
52740;SDS011;38634;52.138;9.912;2023-07-29T02:11:40;16.65;;;2.95;;
52740;SDS011;38634;52.138;9.912;2023-07-29T11:19:08;22.77;;;4.22;;
52740;SDS011;38634;52.138;9.912;2023-07-29T11:21:56;16.30;;;3.58;;
52740;SDS011;38634;52.138;9.912;2023-07-29T11:24:42;18.27;;;3.63;;
52740;SDS011;38634;52.138;9.912;2023-07-29T11:27:27;19.08;;;5.60;;
52740;SDS011;38634;52.138;9.912;2023-07-29T11:30:12;16.65;;;3.28;;
52740;SDS011;38634;52.138;9.912;2023-07-29T11:32:58;12.73;;;2.67;;
52740;SDS011;38634;52.138;9.912;2023-07-29T11:35:43;18.80;;;3.85;;
52740;SDS011;38634;52.138;9.912;2023-07-29T11:38:28;15.40;;;2.85;;
52740;SDS011;38634;52.138;9.912;2023-07-29T11:41:12;17.27;;;3.10;;
52740;SDS011;38634;52.138;9.912;2023-07-29T11:44:03;15.85;;;2.70;;
52740;SDS011;38634;52.138;9.912;2023-07-29T11:46:48;15.10;;;2.65;;
52740;SDS011;38634;52.138;9.912;2023-07-29T11:49:33;16.55;;;3.08;;
52740;SDS011;38634;52.138;9.912;2023-07-29T11:52:18;15.25;;;2.58;;
52740;SDS011;38634;52.138;9.912;2023-07-29T11:55:03;18.38;;;3.50;;
52740;SDS011;38634;52.138;9.912;2023-07-29T11:57:50;16.70;;;3.10;;
52740;SDS011;38634;52.138;9.912;2023-07-29T12:00:37;14.30;;;3.13;;
52740;SDS011;38634;52.138;9.912;2023-07-29T12:03:22;14.57;;;2.60;;
52740;SDS011;38634;52.138;9.912;2023-07-29T12:06:07;14.82;;;2.72;;
52740;SDS011;38634;52.138;9.912;2023-07-29T12:08:51;17.50;;;3.17;;
52740;SDS011;38634;52.138;9.912;2023-07-29T12:11:36;13.65;;;2.55;;
52740;SDS011;38634;52.138;9.912;2023-07-29T12:14:21;11.38;;;2.10;;
52740;SDS011;38634;52.138;9.912;2023-07-29T12:17:06;14.68;;;2.70;;
52740;SDS011;38634;52.138;9.912;2023-07-29T12:19:53;14.13;;;2.60;;
52740;SDS011;38634;52.138;9.912;2023-07-29T12:22:38;12.60;;;2.58;;
52740;SDS011;38634;52.138;9.912;2023-07-29T12:25:26;13.13;;;2.25;;
52740;SDS011;38634;52.138;9.912;2023-07-29T12:28:12;8.48;;;1.90;;
52740;SDS011;38634;52.138;9.912;2023-07-29T12:30:56;13.75;;;2.45;;
52740;SDS011;38634;52.138;9.912;2023-07-29T12:33:41;16.52;;;3.08;;
52740;SDS011;38634;52.138;9.912;2023-07-29T12:36:48;14.40;;;2.63;;
52740;SDS011;38634;52.138;9.912;2023-07-29T12:39:35;15.88;;;2.80;;
52740;SDS011;38634;52.138;9.912;2023-07-29T12:42:27;13.98;;;2.53;;
52740;SDS011;38634;52.138;9.912;2023-07-29T12:45:12;19.33;;;3.28;;
52740;SDS011;38634;52.138;9.912;2023-07-29T12:47:58;18.27;;;3.00;;
52740;SDS011;38634;52.138;9.912;2023-07-29T12:50:43;15.57;;;2.50;;
52740;SDS011;38634;52.138;9.912;2023-07-29T12:53:28;17.88;;;2.72;;
52740;SDS011;38634;52.138;9.912;2023-07-29T12:56:12;24.90;;;4.53;;
52740;SDS011;38634;52.138;9.912;2023-07-29T12:58:57;17.83;;;3.05;;
52740;SDS011;38634;52.138;9.912;2023-07-29T13:01:45;21.60;;;3.38;;
52740;SDS011;38634;52.138;9.912;2023-07-29T13:04:29;56.15;;;8.70;;
52740;SDS011;38634;52.138;9.912;2023-07-29T13:07:14;44.65;;;7.93;;
52740;SDS011;38634;52.138;9.912;2023-07-29T13:09:59;24.10;;;4.32;;
52740;SDS011;38634;52.138;9.912;2023-07-29T13:12:46;45.42;;;7.50;;
52740;SDS011;38634;52.138;9.912;2023-07-29T13:15:32;51.28;;;8.23;;
52740;SDS011;38634;52.138;9.912;2023-07-29T13:18:17;29.92;;;5.22;;
52740;SDS011;38634;52.138;9.912;2023-07-29T13:21:01;26.42;;;4.88;;
52740;SDS011;38634;52.138;9.912;2023-07-29T13:23:46;40.03;;;6.75;;
52740;SDS011;38634;52.138;9.912;2023-07-29T13:26:30;43.15;;;7.20;;
52740;SDS011;38634;52.138;9.912;2023-07-29T13:29:15;42.33;;;7.22;;
52740;SDS011;38634;52.138;9.912;2023-07-29T13:31:59;20.02;;;3.55;;
52740;SDS011;38634;52.138;9.912;2023-07-29T13:34:44;31.17;;;5.75;;
52740;SDS011;38634;52.138;9.912;2023-07-29T13:37:29;57.72;;;11.68;;
52740;SDS011;38634;52.138;9.912;2023-07-29T13:40:13;49.65;;;8.43;;
52740;SDS011;38634;52.138;9.912;2023-07-29T13:42:58;23.10;;;4.72;;
52740;SDS011;38634;52.138;9.912;2023-07-29T13:45:43;28.85;;;5.72;;
52740;SDS011;38634;52.138;9.912;2023-07-29T13:48:28;51.45;;;9.05;;
52740;SDS011;38634;52.138;9.912;2023-07-29T13:51:12;47.17;;;8.35;;
52740;SDS011;38634;52.138;9.912;2023-07-29T13:53:57;20.98;;;4.20;;
52740;SDS011;38634;52.138;9.912;2023-07-29T13:56:42;24.17;;;5.28;;
52740;SDS011;38634;52.138;9.912;2023-07-29T13:59:26;45.78;;;7.65;;
52740;SDS011;38634;52.138;9.912;2023-07-29T14:02:11;54.42;;;9.52;;
52740;SDS011;38634;52.138;9.912;2023-07-29T14:04:59;28.15;;;6.00;;
52740;SDS011;38634;52.138;9.912;2023-07-29T14:07:43;25.67;;;5.47;;
52740;SDS011;38634;52.138;9.912;2023-07-29T14:10:28;47.70;;;8.45;;
52740;SDS011;38634;52.138;9.912;2023-07-29T14:13:12;44.55;;;8.02;;
52740;SDS011;38634;52.138;9.912;2023-07-29T14:15:57;24.88;;;5.20;;
52740;SDS011;38634;52.138;9.912;2023-07-29T14:18:47;28.80;;;5.05;;
52740;SDS011;38634;52.138;9.912;2023-07-29T14:21:31;48.13;;;8.23;;
52740;SDS011;38634;52.138;9.912;2023-07-29T14:24:16;50.40;;;8.93;;
52740;SDS011;38634;52.138;9.912;2023-07-29T14:27:01;20.00;;;4.63;;
52740;SDS011;38634;52.138;9.912;2023-07-29T14:29:46;26.25;;;5.40;;
52740;SDS011;38634;52.138;9.912;2023-07-29T14:32:31;53.78;;;9.00;;
52740;SDS011;38634;52.138;9.912;2023-07-29T14:35:16;47.92;;;7.95;;
52740;SDS011;38634;52.138;9.912;2023-07-29T14:38:00;22.02;;;4.68;;
52740;SDS011;38634;52.138;9.912;2023-07-29T14:40:47;20.90;;;4.55;;
52740;SDS011;38634;52.138;9.912;2023-07-29T14:43:32;44.38;;;7.45;;
52740;SDS011;38634;52.138;9.912;2023-07-29T14:46:18;43.67;;;7.50;;
52740;SDS011;38634;52.138;9.912;2023-07-29T14:49:02;20.55;;;4.43;;
52740;SDS011;38634;52.138;9.912;2023-07-29T14:51:47;24.05;;;4.60;;
52740;SDS011;38634;52.138;9.912;2023-07-29T14:54:31;39.08;;;6.95;;
52740;SDS011;38634;52.138;9.912;2023-07-29T14:57:16;48.47;;;9.98;;
52740;SDS011;38634;52.138;9.912;2023-07-29T15:00:01;19.92;;;4.18;;
52740;SDS011;38634;52.138;9.912;2023-07-29T15:02:47;20.45;;;3.95;;
52740;SDS011;38634;52.138;9.912;2023-07-29T15:05:32;45.10;;;7.45;;
52740;SDS011;38634;52.138;9.912;2023-07-29T15:08:16;48.53;;;8.35;;
52740;SDS011;38634;52.138;9.912;2023-07-29T15:11:05;20.67;;;4.25;;
52740;SDS011;38634;52.138;9.912;2023-07-29T15:14:05;41.53;;;7.38;;
52740;SDS011;38634;52.138;9.912;2023-07-29T15:16:49;18.90;;;4.18;;
52740;SDS011;38634;52.138;9.912;2023-07-29T15:19:34;28.40;;;5.70;;
52740;SDS011;38634;52.138;9.912;2023-07-29T15:22:18;52.90;;;9.02;;
52740;SDS011;38634;52.138;9.912;2023-07-29T15:25:03;52.22;;;9.00;;
52740;SDS011;38634;52.138;9.912;2023-07-29T15:27:48;18.23;;;3.95;;
52740;SDS011;38634;52.138;9.912;2023-07-29T15:30:35;23.00;;;4.60;;
52740;SDS011;38634;52.138;9.912;2023-07-29T15:33:23;57.90;;;9.57;;
52740;SDS011;38634;52.138;9.912;2023-07-29T15:36:07;38.90;;;6.72;;
52740;SDS011;38634;52.138;9.912;2023-07-29T15:38:52;22.17;;;4.60;;
52740;SDS011;38634;52.138;9.912;2023-07-29T15:41:37;34.53;;;7.25;;
52740;SDS011;38634;52.138;9.912;2023-07-29T15:44:21;52.72;;;8.20;;
52740;SDS011;38634;52.138;9.912;2023-07-29T15:47:06;51.45;;;8.63;;
52740;SDS011;38634;52.138;9.912;2023-07-29T15:49:51;18.33;;;4.22;;
52740;SDS011;38634;52.138;9.912;2023-07-29T15:52:36;28.40;;;5.97;;
52740;SDS011;38634;52.138;9.912;2023-07-29T15:55:25;56.45;;;9.48;;
52740;SDS011;38634;52.138;9.912;2023-07-29T15:58:10;32.13;;;6.30;;
52740;SDS011;38634;52.138;9.912;2023-07-29T16:00:54;19.60;;;4.28;;
52740;SDS011;38634;52.138;9.912;2023-07-29T16:03:39;32.53;;;6.40;;
52740;SDS011;38634;52.138;9.912;2023-07-29T16:06:25;51.33;;;8.85;;
52740;SDS011;38634;52.138;9.912;2023-07-29T16:09:10;34.42;;;6.57;;
52740;SDS011;38634;52.138;9.912;2023-07-29T16:11:55;21.40;;;4.80;;
52740;SDS011;38634;52.138;9.912;2023-07-29T16:14:39;38.95;;;7.15;;
52740;SDS011;38634;52.138;9.912;2023-07-29T16:17:24;60.72;;;11.80;;
52740;SDS011;38634;52.138;9.912;2023-07-29T16:20:08;46.55;;;8.30;;
52740;SDS011;38634;52.138;9.912;2023-07-29T16:22:54;20.92;;;4.60;;
52740;SDS011;38634;52.138;9.912;2023-07-29T16:25:38;27.88;;;5.53;;
52740;SDS011;38634;52.138;9.912;2023-07-29T16:28:23;45.38;;;8.23;;
52740;SDS011;38634;52.138;9.912;2023-07-29T16:31:07;47.05;;;8.20;;
52740;SDS011;38634;52.138;9.912;2023-07-29T16:33:52;23.27;;;4.93;;
52740;SDS011;38634;52.138;9.912;2023-07-29T16:36:37;24.00;;;4.78;;
52740;SDS011;38634;52.138;9.912;2023-07-29T16:39:21;45.95;;;8.30;;
52740;SDS011;38634;52.138;9.912;2023-07-29T16:42:06;45.05;;;7.90;;
52740;SDS011;38634;52.138;9.912;2023-07-29T16:44:50;29.75;;;5.55;;
52740;SDS011;38634;52.138;9.912;2023-07-29T16:47:35;28.23;;;5.65;;
52740;SDS011;38634;52.138;9.912;2023-07-29T16:50:20;37.28;;;7.10;;
52740;SDS011;38634;52.138;9.912;2023-07-29T16:53:04;48.53;;;8.23;;
52740;SDS011;38634;52.138;9.912;2023-07-29T16:55:49;39.72;;;7.28;;
52740;SDS011;38634;52.138;9.912;2023-07-29T16:58:33;24.55;;;5.47;;
52740;SDS011;38634;52.138;9.912;2023-07-29T17:01:18;26.95;;;4.97;;
52740;SDS011;38634;52.138;9.912;2023-07-29T17:04:03;49.67;;;8.90;;
52740;SDS011;38634;52.138;9.912;2023-07-29T17:06:48;47.97;;;8.43;;
52740;SDS011;38634;52.138;9.912;2023-07-29T17:09:33;19.85;;;4.78;;
52740;SDS011;38634;52.138;9.912;2023-07-29T17:12:18;25.10;;;5.38;;
52740;SDS011;38634;52.138;9.912;2023-07-29T17:15:03;49.50;;;9.60;;
52740;SDS011;38634;52.138;9.912;2023-07-29T17:17:50;22.63;;;4.03;;
52740;SDS011;38634;52.138;9.912;2023-07-29T17:20:38;41.70;;;7.50;;
52740;SDS011;38634;52.138;9.912;2023-07-29T17:23:23;20.60;;;3.40;;
52740;SDS011;38634;52.138;9.912;2023-07-29T17:26:07;21.42;;;3.53;;
52740;SDS011;38634;52.138;9.912;2023-07-29T17:28:52;20.92;;;3.83;;
52740;SDS011;38634;52.138;9.912;2023-07-29T17:31:36;18.75;;;3.17;;
52740;SDS011;38634;52.138;9.912;2023-07-29T17:34:21;21.80;;;3.63;;
52740;SDS011;38634;52.138;9.912;2023-07-29T17:37:08;24.52;;;4.40;;
52740;SDS011;38634;52.138;9.912;2023-07-29T17:39:52;29.77;;;5.45;;
52740;SDS011;38634;52.138;9.912;2023-07-29T17:42:37;18.75;;;3.17;;
52740;SDS011;38634;52.138;9.912;2023-07-29T17:45:22;14.80;;;3.10;;
52740;SDS011;38634;52.138;9.912;2023-07-29T17:48:07;20.73;;;3.53;;
52740;SDS011;38634;52.138;9.912;2023-07-29T17:50:54;22.25;;;4.18;;
52740;SDS011;38634;52.138;9.912;2023-07-29T17:53:39;17.70;;;3.03;;
52740;SDS011;38634;52.138;9.912;2023-07-29T17:56:23;21.25;;;3.78;;
52740;SDS011;38634;52.138;9.912;2023-07-29T17:59:10;17.88;;;3.25;;
52740;SDS011;38634;52.138;9.912;2023-07-29T18:01:58;18.13;;;3.13;;
52740;SDS011;38634;52.138;9.912;2023-07-29T18:04:42;21.83;;;3.95;;
52740;SDS011;38634;52.138;9.912;2023-07-29T18:07:27;25.77;;;6.07;;
52740;SDS011;38634;52.138;9.912;2023-07-29T18:10:15;21.90;;;3.67;;
52740;SDS011;38634;52.138;9.912;2023-07-29T18:12:59;17.40;;;3.80;;
52740;SDS011;38634;52.138;9.912;2023-07-29T18:15:44;21.50;;;5.35;;
52740;SDS011;38634;52.138;9.912;2023-07-29T18:18:29;20.48;;;3.95;;
52740;SDS011;38634;52.138;9.912;2023-07-29T18:21:15;25.90;;;4.85;;
52740;SDS011;38634;52.138;9.912;2023-07-29T18:24:00;22.13;;;3.78;;
52740;SDS011;38634;52.138;9.912;2023-07-29T18:26:45;16.13;;;3.28;;
52740;SDS011;38634;52.138;9.912;2023-07-29T18:29:29;16.23;;;3.42;;
52740;SDS011;38634;52.138;9.912;2023-07-29T18:32:16;15.15;;;3.17;;
52740;SDS011;38634;52.138;9.912;2023-07-29T18:35:01;16.63;;;3.28;;
52740;SDS011;38634;52.138;9.912;2023-07-29T18:37:47;16.20;;;3.30;;
52740;SDS011;38634;52.138;9.912;2023-07-29T18:40:37;16.13;;;2.88;;
52740;SDS011;38634;52.138;9.912;2023-07-29T18:46:20;15.82;;;3.10;;
52740;SDS011;38634;52.138;9.912;2023-07-29T18:49:05;18.05;;;3.28;;
52740;SDS011;38634;52.138;9.912;2023-07-29T18:51:51;15.38;;;2.85;;
52740;SDS011;38634;52.138;9.912;2023-07-29T18:54:36;15.80;;;3.17;;
52740;SDS011;38634;52.138;9.912;2023-07-29T18:57:22;23.17;;;6.20;;
52740;SDS011;38634;52.138;9.912;2023-07-29T19:00:08;17.42;;;2.85;;
52740;SDS011;38634;52.138;9.912;2023-07-29T19:02:53;15.45;;;2.90;;
52740;SDS011;38634;52.138;9.912;2023-07-29T19:05:40;17.13;;;2.95;;
52740;SDS011;38634;52.138;9.912;2023-07-29T19:08:25;16.85;;;2.70;;
52740;SDS011;38634;52.138;9.912;2023-07-29T19:11:10;16.95;;;3.15;;
52740;SDS011;38634;52.138;9.912;2023-07-29T19:13:55;18.35;;;3.78;;
52740;SDS011;38634;52.138;9.912;2023-07-29T19:16:39;14.68;;;3.40;;
52740;SDS011;38634;52.138;9.912;2023-07-29T19:19:24;16.10;;;3.35;;
52740;SDS011;38634;52.138;9.912;2023-07-29T19:22:09;15.43;;;2.95;;
52740;SDS011;38634;52.138;9.912;2023-07-29T19:24:56;10.55;;;2.45;;
52740;SDS011;38634;52.138;9.912;2023-07-29T19:27:41;13.73;;;3.00;;
52740;SDS011;38634;52.138;9.912;2023-07-29T19:30:26;15.70;;;3.10;;
52740;SDS011;38634;52.138;9.912;2023-07-29T19:33:10;13.68;;;2.70;;
52740;SDS011;38634;52.138;9.912;2023-07-29T19:35:55;16.92;;;2.88;;
52740;SDS011;38634;52.138;9.912;2023-07-29T19:38:41;17.10;;;3.10;;
52740;SDS011;38634;52.138;9.912;2023-07-29T19:41:25;14.50;;;2.60;;
52740;SDS011;38634;52.138;9.912;2023-07-29T19:44:11;12.13;;;2.33;;
52740;SDS011;38634;52.138;9.912;2023-07-29T19:46:55;16.83;;;3.13;;
52740;SDS011;38634;52.138;9.912;2023-07-29T19:49:40;13.15;;;3.10;;
52740;SDS011;38634;52.138;9.912;2023-07-29T19:52:24;17.15;;;2.97;;
52740;SDS011;38634;52.138;9.912;2023-07-29T19:55:09;16.90;;;3.58;;
52740;SDS011;38634;52.138;9.912;2023-07-29T19:57:54;18.67;;;3.55;;
52740;SDS011;38634;52.138;9.912;2023-07-29T20:00:38;17.17;;;3.30;;
52740;SDS011;38634;52.138;9.912;2023-07-29T20:03:23;19.13;;;3.80;;
52740;SDS011;38634;52.138;9.912;2023-07-29T20:06:08;16.05;;;3.00;;
52740;SDS011;38634;52.138;9.912;2023-07-29T20:08:52;14.52;;;2.88;;
52740;SDS011;38634;52.138;9.912;2023-07-29T20:11:37;15.57;;;3.15;;
52740;SDS011;38634;52.138;9.912;2023-07-29T20:14:24;18.80;;;3.50;;
52740;SDS011;38634;52.138;9.912;2023-07-29T20:17:09;17.73;;;4.28;;
52740;SDS011;38634;52.138;9.912;2023-07-29T20:19:54;23.02;;;5.30;;
52740;SDS011;38634;52.138;9.912;2023-07-29T20:22:39;17.55;;;3.60;;
52740;SDS011;38634;52.138;9.912;2023-07-29T20:25:24;19.45;;;3.97;;
52740;SDS011;38634;52.138;9.912;2023-07-29T20:28:08;17.45;;;3.28;;
52740;SDS011;38634;52.138;9.912;2023-07-29T20:30:53;14.60;;;2.72;;
52740;SDS011;38634;52.138;9.912;2023-07-29T20:33:43;20.98;;;3.67;;
52740;SDS011;38634;52.138;9.912;2023-07-29T20:36:37;16.30;;;3.05;;
52740;SDS011;38634;52.138;9.912;2023-07-29T20:39:25;16.77;;;3.03;;
52740;SDS011;38634;52.138;9.912;2023-07-29T20:42:11;17.58;;;3.08;;
52740;SDS011;38634;52.138;9.912;2023-07-29T20:45:00;18.67;;;3.65;;
52740;SDS011;38634;52.138;9.912;2023-07-29T20:47:47;16.08;;;2.90;;
52740;SDS011;38634;52.138;9.912;2023-07-29T20:50:31;18.35;;;3.15;;
52740;SDS011;38634;52.138;9.912;2023-07-29T20:53:16;15.80;;;2.95;;
52740;SDS011;38634;52.138;9.912;2023-07-29T20:56:01;16.92;;;3.08;;
52740;SDS011;38634;52.138;9.912;2023-07-29T20:58:45;16.95;;;3.30;;
52740;SDS011;38634;52.138;9.912;2023-07-29T21:01:30;16.60;;;3.50;;
52740;SDS011;38634;52.138;9.912;2023-07-29T21:04:17;15.32;;;3.28;;
52740;SDS011;38634;52.138;9.912;2023-07-29T21:07:02;16.80;;;3.38;;
52740;SDS011;38634;52.138;9.912;2023-07-29T21:09:47;16.98;;;3.13;;
52740;SDS011;38634;52.138;9.912;2023-07-29T21:12:39;15.45;;;3.40;;
52740;SDS011;38634;52.138;9.912;2023-07-29T21:15:30;15.35;;;3.40;;
52740;SDS011;38634;52.138;9.912;2023-07-29T21:18:15;17.67;;;3.42;;
52740;SDS011;38634;52.138;9.912;2023-07-29T21:20:59;15.38;;;3.03;;
52740;SDS011;38634;52.138;9.912;2023-07-29T21:23:44;22.42;;;4.30;;
52740;SDS011;38634;52.138;9.912;2023-07-29T21:26:29;18.73;;;3.75;;
52740;SDS011;38634;52.138;9.912;2023-07-29T21:29:13;15.45;;;3.08;;
52740;SDS011;38634;52.138;9.912;2023-07-29T21:32:00;17.88;;;3.45;;
52740;SDS011;38634;52.138;9.912;2023-07-29T21:34:45;16.20;;;6.88;;
52740;SDS011;38634;52.138;9.912;2023-07-29T21:37:29;24.02;;;8.52;;
52740;SDS011;38634;52.138;9.912;2023-07-29T21:40:17;25.23;;;6.80;;
52740;SDS011;38634;52.138;9.912;2023-07-29T21:43:02;19.92;;;5.47;;
52740;SDS011;38634;52.138;9.912;2023-07-29T21:45:47;16.23;;;3.72;;
52740;SDS011;38634;52.138;9.912;2023-07-29T21:48:31;16.30;;;3.28;;
52740;SDS011;38634;52.138;9.912;2023-07-29T21:51:16;15.77;;;3.28;;
52740;SDS011;38634;52.138;9.912;2023-07-29T21:54:02;17.25;;;3.70;;
52740;SDS011;38634;52.138;9.912;2023-07-29T21:56:47;14.75;;;3.28;;
52740;SDS011;38634;52.138;9.912;2023-07-29T21:59:33;19.25;;;4.18;;
52740;SDS011;38634;52.138;9.912;2023-07-29T22:02:17;15.48;;;3.28;;
52740;SDS011;38634;52.138;9.912;2023-07-29T22:05:02;18.77;;;3.85;;
52740;SDS011;38634;52.138;9.912;2023-07-29T22:08:07;16.33;;;3.10;;
52740;SDS011;38634;52.138;9.912;2023-07-29T22:11:00;16.33;;;3.42;;
52740;SDS011;38634;52.138;9.912;2023-07-29T22:13:48;17.83;;;3.42;;
52740;SDS011;38634;52.138;9.912;2023-07-29T22:16:33;14.40;;;2.92;;
52740;SDS011;38634;52.138;9.912;2023-07-29T22:19:18;18.45;;;3.28;;
52740;SDS011;38634;52.138;9.912;2023-07-29T22:22:03;12.65;;;2.50;;
52740;SDS011;38634;52.138;9.912;2023-07-29T22:24:48;15.30;;;3.05;;
52740;SDS011;38634;52.138;9.912;2023-07-29T22:27:35;14.95;;;3.33;;
52740;SDS011;38634;52.138;9.912;2023-07-29T22:30:20;19.70;;;3.90;;
52740;SDS011;38634;52.138;9.912;2023-07-29T22:33:05;13.73;;;2.97;;
52740;SDS011;38634;52.138;9.912;2023-07-29T22:35:49;13.35;;;3.40;;
52740;SDS011;38634;52.138;9.912;2023-07-29T22:38:34;17.42;;;3.13;;
52740;SDS011;38634;52.138;9.912;2023-07-29T22:41:18;17.00;;;3.30;;
52740;SDS011;38634;52.138;9.912;2023-07-29T22:44:03;17.25;;;3.47;;
52740;SDS011;38634;52.138;9.912;2023-07-29T22:46:48;16.42;;;3.45;;
52740;SDS011;38634;52.138;9.912;2023-07-29T22:49:32;18.05;;;3.28;;
52740;SDS011;38634;52.138;9.912;2023-07-29T22:52:17;13.38;;;3.05;;
52740;SDS011;38634;52.138;9.912;2023-07-29T22:55:02;20.67;;;3.97;;
52740;SDS011;38634;52.138;9.912;2023-07-29T22:57:46;12.57;;;2.47;;
52740;SDS011;38634;52.138;9.912;2023-07-29T23:00:31;16.33;;;3.15;;
52740;SDS011;38634;52.138;9.912;2023-07-29T23:03:16;11.52;;;2.30;;
52740;SDS011;38634;52.138;9.912;2023-07-29T23:06:01;15.80;;;3.00;;
52740;SDS011;38634;52.138;9.912;2023-07-29T23:08:53;14.02;;;2.58;;
52740;SDS011;38634;52.138;9.912;2023-07-29T23:11:40;13.98;;;2.80;;
52740;SDS011;38634;52.138;9.912;2023-07-29T23:14:25;16.98;;;3.03;;
52740;SDS011;38634;52.138;9.912;2023-07-29T23:17:09;17.17;;;3.60;;
52740;SDS011;38634;52.138;9.912;2023-07-29T23:19:54;16.08;;;3.00;;
52740;SDS011;38634;52.138;9.912;2023-07-29T23:22:39;15.30;;;2.97;;
52740;SDS011;38634;52.138;9.912;2023-07-29T23:25:23;11.88;;;2.90;;
52740;SDS011;38634;52.138;9.912;2023-07-29T23:28:08;14.50;;;2.75;;
52740;SDS011;38634;52.138;9.912;2023-07-29T23:30:56;15.98;;;2.88;;
52740;SDS011;38634;52.138;9.912;2023-07-29T23:33:41;15.88;;;3.25;;
52740;SDS011;38634;52.138;9.912;2023-07-29T23:36:26;16.83;;;3.35;;
52740;SDS011;38634;52.138;9.912;2023-07-29T23:39:10;14.50;;;2.63;;
52740;SDS011;38634;52.138;9.912;2023-07-29T23:41:55;14.38;;;2.95;;
52740;SDS011;38634;52.138;9.912;2023-07-29T23:44:39;15.85;;;3.00;;
52740;SDS011;38634;52.138;9.912;2023-07-29T23:47:27;18.70;;;5.38;;
52740;SDS011;38634;52.138;9.912;2023-07-29T23:50:11;16.30;;;2.97;;
52740;SDS011;38634;52.138;9.912;2023-07-29T23:52:56;16.52;;;2.97;;
52740;SDS011;38634;52.138;9.912;2023-07-29T23:55:42;15.90;;;3.22;;
52740;SDS011;38634;52.138;9.912;2023-07-29T23:58:26;14.57;;;2.55;;
